Archival Weather

Norman Y Mineta San Jose Intl

San Jose, California (KSJC)

Report from: Tuesday, February 27, 2024 9:53 AM PST
Current time: Friday, June 14, 2024 5:45 AM PDT

Current weather – Weather history – Daily summaries
Weather forecast

Temperature13.9°C (57.0°F)
Dew point-0.6°C (30.9°F)
Winds 11 kts (5.7 m/s, 12.7 mph) Northwest (310°)
Visibility10 mi. (16.1 km)
Clouds Few clouds 2,600 ft. (792 m)
Scattered clouds 9,000 ft. (2,743 m)
Altimeter30.10 in.Hg (1019 mB)
Relative humidity37 %
Density altitude-236 ft. (-72 m)
Sea-level pressure101.9 kPa (1019 mB, 30.09 in.Hg)
Max temp last 6 hours13.9°C (57.0°F)
Min temp last 6 hours6.7°C (44.1°F)
Remarks System requires maintenance
Automated weather observing station with precipitation discriminator
Pressure rising more slowly
Flight conditions Visual Meteorological Conditions
Raw dataKSJC 271753Z 31011KT 10SM FEW026 SCT090 14/M01 A3010 RMK AO2 SLP191 T01391006 10139 20067 51015 $
An error has occurred. This application may no longer respond until reloaded. Reload 🗙